sensor_id;sensor_type;location;lat;lon;timestamp;pressure;altitude;pressure_sealevel;temperature;humidity
31062;BME280;17724;53.546;9.974;2023-07-28T00:02:05;100152.25;;;16.90;100.00
31062;BME280;17724;53.546;9.974;2023-07-28T00:06:05;100149.97;;;16.92;100.00
31062;BME280;17724;53.546;9.974;2023-07-28T00:10:06;100159.03;;;17.07;100.00
31062;BME280;17724;53.546;9.974;2023-07-28T00:14:06;100156.53;;;16.96;100.00
31062;BME280;17724;53.546;9.974;2023-07-28T00:18:07;100158.03;;;17.03;100.00
31062;BME280;17724;53.546;9.974;2023-07-28T00:22:07;100146.47;;;17.09;100.00
31062;BME280;17724;53.546;9.974;2023-07-28T00:26:08;100144.19;;;17.11;100.00
31062;BME280;17724;53.546;9.974;2023-07-28T00:30:10;100141.88;;;17.05;100.00
31062;BME280;17724;53.546;9.974;2023-07-28T00:34:10;100124.78;;;16.89;100.00
31062;BME280;17724;53.546;9.974;2023-07-28T00:38:11;100130.25;;;17.03;100.00
31062;BME280;17724;53.546;9.974;2023-07-28T00:42:11;100129.00;;;17.09;100.00
31062;BME280;17724;53.546;9.974;2023-07-28T00:46:12;100133.78;;;17.17;100.00
31062;BME280;17724;53.546;9.974;2023-07-28T00:50:14;100129.53;;;17.19;100.00
31062;BME280;17724;53.546;9.974;2023-07-28T00:54:14;100133.63;;;17.22;100.00
31062;BME280;17724;53.546;9.974;2023-07-28T00:58:15;100126.25;;;17.17;100.00
31062;BME280;17724;53.546;9.974;2023-07-28T01:02:16;100127.59;;;17.20;100.00
31062;BME280;17724;53.546;9.974;2023-07-28T01:10:32;100110.69;;;17.08;100.00
31062;BME280;17724;53.546;9.974;2023-07-28T01:14:33;100121.84;;;17.16;100.00
31062;BME280;17724;53.546;9.974;2023-07-28T01:18:33;100120.84;;;17.12;100.00
31062;BME280;17724;53.546;9.974;2023-07-28T01:27:07;100106.59;;;17.05;100.00
31062;BME280;17724;53.546;9.974;2023-07-28T01:31:08;100114.41;;;17.03;100.00
31062;BME280;17724;53.546;9.974;2023-07-28T01:35:09;100106.78;;;17.09;100.00
31062;BME280;17724;53.546;9.974;2023-07-28T01:39:10;100110.03;;;17.11;100.00
31062;BME280;17724;53.546;9.974;2023-07-28T01:43:10;100115.09;;;17.09;100.00
31062;BME280;17724;53.546;9.974;2023-07-28T01:47:11;100115.09;;;17.09;100.00
31062;BME280;17724;53.546;9.974;2023-07-28T01:51:11;100106.06;;;17.03;100.00
31062;BME280;17724;53.546;9.974;2023-07-28T01:55:12;100111.47;;;16.99;100.00
31062;BME280;17724;53.546;9.974;2023-07-28T01:59:13;100113.59;;;17.03;100.00
31062;BME280;17724;53.546;9.974;2023-07-28T02:03:14;100115.25;;;17.04;100.00
31062;BME280;17724;53.546;9.974;2023-07-28T02:07:14;100123.59;;;17.04;100.00
31062;BME280;17724;53.546;9.974;2023-07-28T02:11:15;100131.78;;;17.09;100.00
31062;BME280;17724;53.546;9.974;2023-07-28T02:15:15;100136.50;;;17.08;100.00
31062;BME280;17724;53.546;9.974;2023-07-28T02:19:16;100130.00;;;17.13;100.00
31062;BME280;17724;53.546;9.974;2023-07-28T02:23:16;100132.25;;;17.11;100.00
31062;BME280;17724;53.546;9.974;2023-07-28T02:27:17;100129.28;;;17.07;100.00
31062;BME280;17724;53.546;9.974;2023-07-28T02:31:17;100148.31;;;17.14;100.00
31062;BME280;17724;53.546;9.974;2023-07-28T02:35:18;100151.66;;;17.02;100.00
31062;BME280;17724;53.546;9.974;2023-07-28T02:39:18;100141.66;;;16.92;100.00
31062;BME280;17724;53.546;9.974;2023-07-28T02:43:19;100136.38;;;16.91;100.00
31062;BME280;17724;53.546;9.974;2023-07-28T02:47:20;100151.28;;;16.95;100.00
31062;BME280;17724;53.546;9.974;2023-07-28T02:51:20;100159.75;;;16.90;100.00
31062;BME280;17724;53.546;9.974;2023-07-28T02:55:21;100171.69;;;16.90;100.00
31062;BME280;17724;53.546;9.974;2023-07-28T02:59:21;100161.66;;;16.81;100.00
31062;BME280;17724;53.546;9.974;2023-07-28T03:03:23;100168.78;;;16.73;100.00
31062;BME280;17724;53.546;9.974;2023-07-28T03:07:24;100176.03;;;16.83;100.00
31062;BME280;17724;53.546;9.974;2023-07-28T03:11:31;100169.03;;;16.71;100.00
31062;BME280;17724;53.546;9.974;2023-07-28T03:15:32;100176.06;;;16.69;100.00
31062;BME280;17724;53.546;9.974;2023-07-28T03:19:32;100171.56;;;16.73;100.00
31062;BME280;17724;53.546;9.974;2023-07-28T03:23:33;100177.50;;;16.66;100.00
31062;BME280;17724;53.546;9.974;2023-07-28T03:27:33;100173.91;;;16.80;100.00
31062;BME280;17724;53.546;9.974;2023-07-28T03:31:34;100182.13;;;16.71;100.00
31062;BME280;17724;53.546;9.974;2023-07-28T03:35:36;100186.25;;;16.73;100.00
31062;BME280;17724;53.546;9.974;2023-07-28T03:39:42;100190.88;;;16.78;100.00
31062;BME280;17724;53.546;9.974;2023-07-28T03:43:42;100175.97;;;16.74;100.00
31062;BME280;17724;53.546;9.974;2023-07-28T03:47:43;100173.22;;;16.60;100.00
31062;BME280;17724;53.546;9.974;2023-07-28T03:51:43;100180.81;;;16.68;100.00
31062;BME280;17724;53.546;9.974;2023-07-28T03:55:44;100183.59;;;16.68;100.00
31062;BME280;17724;53.546;9.974;2023-07-28T03:59:44;100193.34;;;16.80;100.00
31062;BME280;17724;53.546;9.974;2023-07-28T04:03:45;100204.13;;;16.81;100.00
31062;BME280;17724;53.546;9.974;2023-07-28T04:07:45;100210.91;;;16.75;100.00
31062;BME280;17724;53.546;9.974;2023-07-28T04:11:46;100215.75;;;16.69;100.00
31062;BME280;17724;53.546;9.974;2023-07-28T04:15:47;100218.66;;;16.64;100.00
31062;BME280;17724;53.546;9.974;2023-07-28T04:19:47;100225.84;;;16.65;100.00
31062;BME280;17724;53.546;9.974;2023-07-28T04:23:47;100223.88;;;16.66;100.00
31062;BME280;17724;53.546;9.974;2023-07-28T04:27:48;100236.72;;;16.75;100.00
31062;BME280;17724;53.546;9.974;2023-07-28T04:31:49;100235.63;;;16.77;100.00
31062;BME280;17724;53.546;9.974;2023-07-28T04:35:55;100221.13;;;16.66;100.00
31062;BME280;17724;53.546;9.974;2023-07-28T04:40:07;100233.47;;;16.73;100.00
31062;BME280;17724;53.546;9.974;2023-07-28T04:44:10;100246.19;;;16.74;100.00
31062;BME280;17724;53.546;9.974;2023-07-28T04:48:14;100254.72;;;16.78;100.00
31062;BME280;17724;53.546;9.974;2023-07-28T04:52:14;100255.13;;;16.71;100.00
31062;BME280;17724;53.546;9.974;2023-07-28T04:56:40;100256.56;;;16.83;100.00
31062;BME280;17724;53.546;9.974;2023-07-28T05:00:40;100266.72;;;16.87;100.00
31062;BME280;17724;53.546;9.974;2023-07-28T05:04:41;100258.72;;;16.86;100.00
31062;BME280;17724;53.546;9.974;2023-07-28T05:08:42;100258.09;;;16.89;100.00
31062;BME280;17724;53.546;9.974;2023-07-28T05:12:42;100255.63;;;16.87;100.00
31062;BME280;17724;53.546;9.974;2023-07-28T05:16:42;100260.47;;;16.82;100.00
31062;BME280;17724;53.546;9.974;2023-07-28T05:20:43;100267.47;;;16.79;100.00
31062;BME280;17724;53.546;9.974;2023-07-28T05:24:47;100279.19;;;16.90;100.00
31062;BME280;17724;53.546;9.974;2023-07-28T05:28:48;100280.25;;;17.03;100.00
31062;BME280;17724;53.546;9.974;2023-07-28T05:32:49;100277.88;;;17.10;100.00
31062;BME280;17724;53.546;9.974;2023-07-28T05:36:56;100292.91;;;17.09;100.00
31062;BME280;17724;53.546;9.974;2023-07-28T05:41:01;100291.34;;;17.16;100.00
31062;BME280;17724;53.546;9.974;2023-07-28T05:45:03;100293.41;;;17.11;100.00
31062;BME280;17724;53.546;9.974;2023-07-28T05:49:04;100293.59;;;17.14;100.00
31062;BME280;17724;53.546;9.974;2023-07-28T05:53:05;100296.34;;;17.28;100.00
31062;BME280;17724;53.546;9.974;2023-07-28T05:57:06;100289.63;;;17.29;100.00
31062;BME280;17724;53.546;9.974;2023-07-28T06:01:06;100297.88;;;17.43;100.00
31062;BME280;17724;53.546;9.974;2023-07-28T06:05:46;100293.19;;;17.43;100.00
31062;BME280;17724;53.546;9.974;2023-07-28T06:09:47;100292.28;;;17.57;100.00
31062;BME280;17724;53.546;9.974;2023-07-28T06:13:48;100303.06;;;17.58;100.00
31062;BME280;17724;53.546;9.974;2023-07-28T06:17:49;100301.09;;;17.59;100.00
31062;BME280;17724;53.546;9.974;2023-07-28T06:21:51;100308.56;;;17.72;100.00
31062;BME280;17724;53.546;9.974;2023-07-28T06:25:52;100315.97;;;17.77;100.00
31062;BME280;17724;53.546;9.974;2023-07-28T06:29:55;100326.34;;;17.85;100.00
31062;BME280;17724;53.546;9.974;2023-07-28T06:33:55;100320.31;;;17.91;100.00
31062;BME280;17724;53.546;9.974;2023-07-28T06:37:56;100318.53;;;17.95;100.00
31062;BME280;17724;53.546;9.974;2023-07-28T06:41:56;100329.72;;;18.04;100.00
31062;BME280;17724;53.546;9.974;2023-07-28T06:45:58;100341.97;;;18.03;100.00
31062;BME280;17724;53.546;9.974;2023-07-28T06:49:59;100339.84;;;18.00;100.00
31062;BME280;17724;53.546;9.974;2023-07-28T06:54:00;100347.22;;;18.05;100.00
31062;BME280;17724;53.546;9.974;2023-07-28T06:58:00;100343.69;;;18.21;100.00
31062;BME280;17724;53.546;9.974;2023-07-28T07:02:01;100345.06;;;18.33;100.00
31062;BME280;17724;53.546;9.974;2023-07-28T07:06:02;100360.63;;;18.42;100.00
31062;BME280;17724;53.546;9.974;2023-07-28T07:10:03;100356.78;;;18.61;100.00
31062;BME280;17724;53.546;9.974;2023-07-28T07:14:04;100369.09;;;18.68;100.00
31062;BME280;17724;53.546;9.974;2023-07-28T07:18:05;100376.16;;;18.75;100.00
31062;BME280;17724;53.546;9.974;2023-07-28T07:22:06;100385.50;;;18.70;100.00
31062;BME280;17724;53.546;9.974;2023-07-28T07:26:06;100384.22;;;18.76;100.00
31062;BME280;17724;53.546;9.974;2023-07-28T07:30:07;100391.88;;;18.70;100.00
31062;BME280;17724;53.546;9.974;2023-07-28T07:34:08;100389.41;;;18.69;100.00
31062;BME280;17724;53.546;9.974;2023-07-28T07:38:08;100404.69;;;18.72;100.00
31062;BME280;17724;53.546;9.974;2023-07-28T07:42:10;100409.41;;;18.71;100.00
31062;BME280;17724;53.546;9.974;2023-07-28T07:46:11;100420.91;;;18.78;100.00
31062;BME280;17724;53.546;9.974;2023-07-28T07:50:12;100424.88;;;18.86;100.00
31062;BME280;17724;53.546;9.974;2023-07-28T07:54:14;100421.13;;;18.90;100.00
31062;BME280;17724;53.546;9.974;2023-07-28T07:58:16;100423.91;;;18.90;100.00
31062;BME280;17724;53.546;9.974;2023-07-28T08:02:16;100427.84;;;18.89;100.00
31062;BME280;17724;53.546;9.974;2023-07-28T08:06:17;100428.03;;;19.02;100.00
31062;BME280;17724;53.546;9.974;2023-07-28T08:10:17;100435.59;;;19.10;100.00
31062;BME280;17724;53.546;9.974;2023-07-28T08:14:18;100434.13;;;19.12;100.00
31062;BME280;17724;53.546;9.974;2023-07-28T08:18:18;100435.31;;;19.20;100.00
31062;BME280;17724;53.546;9.974;2023-07-28T08:22:19;100446.28;;;19.25;100.00
31062;BME280;17724;53.546;9.974;2023-07-28T08:26:19;100448.97;;;19.39;100.00
31062;BME280;17724;53.546;9.974;2023-07-28T08:30:20;100455.81;;;19.41;100.00
31062;BME280;17724;53.546;9.974;2023-07-28T08:34:21;100455.00;;;19.41;100.00
31062;BME280;17724;53.546;9.974;2023-07-28T08:38:21;100468.13;;;19.40;100.00
31062;BME280;17724;53.546;9.974;2023-07-28T08:42:21;100472.56;;;19.41;100.00
31062;BME280;17724;53.546;9.974;2023-07-28T08:46:22;100465.19;;;19.45;100.00
31062;BME280;17724;53.546;9.974;2023-07-28T08:50:23;100468.16;;;19.58;100.00
31062;BME280;17724;53.546;9.974;2023-07-28T08:54:23;100476.41;;;19.63;100.00
31062;BME280;17724;53.546;9.974;2023-07-28T08:58:24;100482.28;;;19.70;100.00
31062;BME280;17724;53.546;9.974;2023-07-28T09:02:25;100478.19;;;19.85;100.00
31062;BME280;17724;53.546;9.974;2023-07-28T09:06:29;100470.00;;;19.71;100.00
31062;BME280;17724;53.546;9.974;2023-07-28T09:10:51;100484.44;;;19.64;100.00
31062;BME280;17724;53.546;9.974;2023-07-28T09:14:57;100485.91;;;19.97;100.00
31062;BME280;17724;53.546;9.974;2023-07-28T09:19:06;100480.97;;;19.93;100.00
31062;BME280;17724;53.546;9.974;2023-07-28T09:23:08;100488.53;;;20.02;100.00
31062;BME280;17724;53.546;9.974;2023-07-28T09:27:22;100492.66;;;20.04;100.00
31062;BME280;17724;53.546;9.974;2023-07-28T09:31:29;100495.59;;;19.99;100.00
31062;BME280;17724;53.546;9.974;2023-07-28T09:35:31;100498.88;;;20.01;100.00
31062;BME280;17724;53.546;9.974;2023-07-28T09:39:33;100494.13;;;19.93;100.00
31062;BME280;17724;53.546;9.974;2023-07-28T09:43:35;100498.38;;;19.90;100.00
31062;BME280;17724;53.546;9.974;2023-07-28T09:47:36;100502.00;;;19.91;100.00
31062;BME280;17724;53.546;9.974;2023-07-28T09:51:38;100501.03;;;19.87;100.00
31062;BME280;17724;53.546;9.974;2023-07-28T09:55:42;100495.59;;;19.82;100.00
31062;BME280;17724;53.546;9.974;2023-07-28T09:59:45;100499.38;;;19.77;100.00
31062;BME280;17724;53.546;9.974;2023-07-28T10:03:47;100496.09;;;19.75;100.00
31062;BME280;17724;53.546;9.974;2023-07-28T10:07:48;100498.38;;;19.82;100.00
31062;BME280;17724;53.546;9.974;2023-07-28T10:11:49;100509.53;;;19.82;100.00
31062;BME280;17724;53.546;9.974;2023-07-28T10:15:50;100510.88;;;19.84;100.00
31062;BME280;17724;53.546;9.974;2023-07-28T10:19:51;100509.88;;;19.98;100.00
31062;BME280;17724;53.546;9.974;2023-07-28T10:23:54;100528.75;;;20.01;100.00
31062;BME280;17724;53.546;9.974;2023-07-28T10:27:55;100513.00;;;19.87;100.00
31062;BME280;17724;53.546;9.974;2023-07-28T10:31:56;100528.94;;;20.04;100.00
31062;BME280;17724;53.546;9.974;2023-07-28T10:36:08;100529.25;;;20.20;100.00
31062;BME280;17724;53.546;9.974;2023-07-28T10:40:27;100534.00;;;20.37;100.00
31062;BME280;17724;53.546;9.974;2023-07-28T10:44:30;100534.66;;;20.34;100.00
31062;BME280;17724;53.546;9.974;2023-07-28T10:48:31;100537.47;;;20.51;100.00
31062;BME280;17724;53.546;9.974;2023-07-28T10:52:32;100530.03;;;20.47;100.00
31062;BME280;17724;53.546;9.974;2023-07-28T10:56:32;100542.38;;;20.63;100.00
31062;BME280;17724;53.546;9.974;2023-07-28T11:00:33;100548.09;;;20.75;100.00
31062;BME280;17724;53.546;9.974;2023-07-28T11:04:33;100552.94;;;20.96;100.00
31062;BME280;17724;53.546;9.974;2023-07-28T11:08:34;100538.78;;;21.01;100.00
31062;BME280;17724;53.546;9.974;2023-07-28T11:12:35;100537.56;;;21.19;100.00
31062;BME280;17724;53.546;9.974;2023-07-28T11:16:38;100540.22;;;21.45;100.00
31062;BME280;17724;53.546;9.974;2023-07-28T11:20:39;100538.03;;;21.59;100.00
31062;BME280;17724;53.546;9.974;2023-07-28T11:24:39;100544.16;;;21.74;100.00
31062;BME280;17724;53.546;9.974;2023-07-28T11:28:40;100544.72;;;22.09;98.61
31062;BME280;17724;53.546;9.974;2023-07-28T11:32:43;100545.00;;;22.37;98.59
31062;BME280;17724;53.546;9.974;2023-07-28T11:36:44;100543.66;;;22.22;93.68
31062;BME280;17724;53.546;9.974;2023-07-28T11:40:45;100540.28;;;22.29;96.84
31062;BME280;17724;53.546;9.974;2023-07-28T11:44:46;100553.78;;;22.15;95.45
31062;BME280;17724;53.546;9.974;2023-07-28T11:48:46;100566.47;;;21.91;93.36
31062;BME280;17724;53.546;9.974;2023-07-28T11:52:47;100573.00;;;21.95;94.08
31062;BME280;17724;53.546;9.974;2023-07-28T11:56:49;100573.63;;;22.01;97.35
31062;BME280;17724;53.546;9.974;2023-07-28T12:00:49;100577.00;;;21.85;96.17
31062;BME280;17724;53.546;9.974;2023-07-28T12:04:50;100579.81;;;21.85;96.77
31062;BME280;17724;53.546;9.974;2023-07-28T12:09:04;100569.84;;;21.97;97.09
31062;BME280;17724;53.546;9.974;2023-07-28T12:13:07;100578.78;;;22.20;97.09
31062;BME280;17724;53.546;9.974;2023-07-28T12:17:15;100575.91;;;22.28;96.96
31062;BME280;17724;53.546;9.974;2023-07-28T12:21:16;100592.84;;;22.32;95.93
31062;BME280;17724;53.546;9.974;2023-07-28T12:25:16;100594.28;;;22.17;95.06
31062;BME280;17724;53.546;9.974;2023-07-28T12:29:17;100592.06;;;22.44;96.84
31062;BME280;17724;53.546;9.974;2023-07-28T12:33:17;100608.78;;;22.19;95.91
31062;BME280;17724;53.546;9.974;2023-07-28T12:37:18;100604.03;;;22.32;96.13
31062;BME280;17724;53.546;9.974;2023-07-28T12:41:19;100607.44;;;22.37;96.25
31062;BME280;17724;53.546;9.974;2023-07-28T12:45:20;100607.25;;;22.43;94.31
31062;BME280;17724;53.546;9.974;2023-07-28T12:49:21;100606.50;;;22.54;94.66
31062;BME280;17724;53.546;9.974;2023-07-28T12:53:22;100614.28;;;22.49;93.09
31062;BME280;17724;53.546;9.974;2023-07-28T12:57:22;100602.88;;;22.33;93.67
31062;BME280;17724;53.546;9.974;2023-07-28T13:01:23;100607.59;;;22.20;93.07
31062;BME280;17724;53.546;9.974;2023-07-28T13:05:24;100629.31;;;22.44;95.22
31062;BME280;17724;53.546;9.974;2023-07-28T13:09:24;100631.91;;;22.49;94.70
31062;BME280;17724;53.546;9.974;2023-07-28T13:13:25;100629.47;;;22.27;92.83
31062;BME280;17724;53.546;9.974;2023-07-28T13:17:25;100637.63;;;22.11;91.28
31062;BME280;17724;53.546;9.974;2023-07-28T13:21:26;100641.97;;;22.29;93.12
31062;BME280;17724;53.546;9.974;2023-07-28T13:25:26;100633.47;;;22.38;94.56
31062;BME280;17724;53.546;9.974;2023-07-28T13:29:27;100629.56;;;22.09;94.46
31062;BME280;17724;53.546;9.974;2023-07-28T13:33:27;100631.63;;;22.42;95.80
31062;BME280;17724;53.546;9.974;2023-07-28T13:37:28;100624.66;;;22.48;94.52
31062;BME280;17724;53.546;9.974;2023-07-28T13:41:28;100626.06;;;22.75;94.63
31062;BME280;17724;53.546;9.974;2023-07-28T13:45:29;100630.88;;;22.75;94.22
31062;BME280;17724;53.546;9.974;2023-07-28T13:49:30;100640.88;;;22.43;92.18
31062;BME280;17724;53.546;9.974;2023-07-28T13:53:30;100635.84;;;22.69;93.51
31062;BME280;17724;53.546;9.974;2023-07-28T13:57:31;100633.53;;;22.71;93.62
31062;BME280;17724;53.546;9.974;2023-07-28T14:01:32;100645.13;;;22.82;94.45
31062;BME280;17724;53.546;9.974;2023-07-28T14:05:33;100646.56;;;22.88;93.59
31062;BME280;17724;53.546;9.974;2023-07-28T14:09:36;100640.84;;;22.63;93.86
31062;BME280;17724;53.546;9.974;2023-07-28T14:13:38;100643.34;;;22.77;96.86
31062;BME280;17724;53.546;9.974;2023-07-28T14:17:38;100638.09;;;22.97;95.34
31062;BME280;17724;53.546;9.974;2023-07-28T14:21:39;100645.38;;;23.10;93.68
31062;BME280;17724;53.546;9.974;2023-07-28T14:25:39;100638.09;;;22.97;93.08
31062;BME280;17724;53.546;9.974;2023-07-28T14:29:39;100639.50;;;23.03;92.47
31062;BME280;17724;53.546;9.974;2023-07-28T14:33:40;100630.88;;;22.75;91.90
31062;BME280;17724;53.546;9.974;2023-07-28T14:37:41;100632.44;;;22.63;91.50
31062;BME280;17724;53.546;9.974;2023-07-28T14:41:41;100618.50;;;22.88;92.91
31062;BME280;17724;53.546;9.974;2023-07-28T14:45:42;100633.00;;;23.23;93.94
31062;BME280;17724;53.546;9.974;2023-07-28T14:49:42;100636.28;;;23.25;91.88
31062;BME280;17724;53.546;9.974;2023-07-28T14:53:43;100641.91;;;23.38;91.78
31062;BME280;17724;53.546;9.974;2023-07-28T14:57:45;100643.16;;;23.16;89.84
31062;BME280;17724;53.546;9.974;2023-07-28T15:01:46;100636.25;;;23.13;91.36
31062;BME280;17724;53.546;9.974;2023-07-28T15:05:47;100647.22;;;23.06;90.05
31062;BME280;17724;53.546;9.974;2023-07-28T15:09:47;100640.47;;;23.07;91.41
31062;BME280;17724;53.546;9.974;2023-07-28T15:13:48;100641.50;;;22.81;90.60
31062;BME280;17724;53.546;9.974;2023-07-28T15:17:48;100640.81;;;22.84;91.80
31062;BME280;17724;53.546;9.974;2023-07-28T15:21:49;100637.28;;;23.08;91.26
31062;BME280;17724;53.546;9.974;2023-07-28T15:25:49;100641.56;;;23.27;89.26
31062;BME280;17724;53.546;9.974;2023-07-28T15:29:52;100651.38;;;23.33;88.21
31062;BME280;17724;53.546;9.974;2023-07-28T15:33:56;100639.19;;;23.29;86.30
31062;BME280;17724;53.546;9.974;2023-07-28T15:37:56;100644.81;;;23.29;85.40
31062;BME280;17724;53.546;9.974;2023-07-28T15:41:57;100642.81;;;23.29;85.63
31062;BME280;17724;53.546;9.974;2023-07-28T15:45:57;100635.94;;;23.27;83.93
31062;BME280;17724;53.546;9.974;2023-07-28T15:49:59;100638.88;;;23.30;83.36
31062;BME280;17724;53.546;9.974;2023-07-28T15:54:00;100652.19;;;23.33;82.35
31062;BME280;17724;53.546;9.974;2023-07-28T15:58:02;100641.31;;;23.32;84.88
31062;BME280;17724;53.546;9.974;2023-07-28T16:02:04;100650.94;;;23.43;84.60
31062;BME280;17724;53.546;9.974;2023-07-28T16:06:05;100647.75;;;23.45;84.02
31062;BME280;17724;53.546;9.974;2023-07-28T16:10:07;100643.31;;;23.44;83.62
31062;BME280;17724;53.546;9.974;2023-07-28T16:14:09;100647.53;;;23.50;83.89
31062;BME280;17724;53.546;9.974;2023-07-28T16:18:09;100646.50;;;23.54;85.13
31062;BME280;17724;53.546;9.974;2023-07-28T16:22:11;100650.00;;;23.51;84.67
31062;BME280;17724;53.546;9.974;2023-07-28T16:26:11;100646.00;;;23.52;83.41
31062;BME280;17724;53.546;9.974;2023-07-28T16:30:13;100644.97;;;23.57;83.50
31062;BME280;17724;53.546;9.974;2023-07-28T16:34:13;100653.50;;;23.48;83.20
31062;BME280;17724;53.546;9.974;2023-07-28T16:38:14;100656.31;;;23.48;83.79
31062;BME280;17724;53.546;9.974;2023-07-28T16:42:14;100659.22;;;23.52;83.66
31062;BME280;17724;53.546;9.974;2023-07-28T16:46:15;100640.75;;;23.51;84.24
31062;BME280;17724;53.546;9.974;2023-07-28T16:50:16;100658.19;;;23.56;83.13
31062;BME280;17724;53.546;9.974;2023-07-28T16:54:16;100657.00;;;23.57;83.27
31062;BME280;17724;53.546;9.974;2023-07-28T16:58:17;100654.78;;;23.51;83.31
31062;BME280;17724;53.546;9.974;2023-07-28T17:02:17;100655.25;;;23.53;84.30
31062;BME280;17724;53.546;9.974;2023-07-28T17:06:18;100657.13;;;23.49;84.37
31062;BME280;17724;53.546;9.974;2023-07-28T17:10:18;100659.22;;;23.40;84.26
31062;BME280;17724;53.546;9.974;2023-07-28T17:14:19;100655.13;;;23.37;85.15
31062;BME280;17724;53.546;9.974;2023-07-28T17:18:20;100663.41;;;23.33;86.24
31062;BME280;17724;53.546;9.974;2023-07-28T17:22:20;100657.78;;;23.33;87.67
31062;BME280;17724;53.546;9.974;2023-07-28T17:26:21;100649.63;;;23.41;87.51
31062;BME280;17724;53.546;9.974;2023-07-28T17:30:22;100650.81;;;23.40;87.76
31062;BME280;17724;53.546;9.974;2023-07-28T17:34:22;100652.19;;;23.46;86.26
31062;BME280;17724;53.546;9.974;2023-07-28T17:38:23;100649.88;;;23.48;85.19
31062;BME280;17724;53.546;9.974;2023-07-28T17:42:23;100660.16;;;23.31;85.82
31062;BME280;17724;53.546;9.974;2023-07-28T17:46:26;100658.28;;;23.35;86.93
31062;BME280;17724;53.546;9.974;2023-07-28T17:50:27;100670.81;;;23.38;85.92
31062;BME280;17724;53.546;9.974;2023-07-28T17:54:27;100675.47;;;23.34;86.41
31062;BME280;17724;53.546;9.974;2023-07-28T17:58:28;100682.13;;;23.42;87.50
31062;BME280;17724;53.546;9.974;2023-07-28T18:02:28;100678.06;;;23.51;86.71
31062;BME280;17724;53.546;9.974;2023-07-28T18:06:29;100694.09;;;23.51;85.01
31062;BME280;17724;53.546;9.974;2023-07-28T18:10:29;100687.53;;;23.47;85.36
31062;BME280;17724;53.546;9.974;2023-07-28T18:14:30;100683.19;;;23.37;86.97
31062;BME280;17724;53.546;9.974;2023-07-28T18:18:30;100682.63;;;23.44;84.79
31062;BME280;17724;53.546;9.974;2023-07-28T18:22:31;100691.94;;;23.35;82.60
31062;BME280;17724;53.546;9.974;2023-07-28T18:26:32;100699.44;;;23.31;83.36
31062;BME280;17724;53.546;9.974;2023-07-28T18:30:33;100703.88;;;23.32;84.44
31062;BME280;17724;53.546;9.974;2023-07-28T18:34:34;100693.44;;;23.21;84.15
31062;BME280;17724;53.546;9.974;2023-07-28T18:38:34;100698.91;;;23.17;83.71
31062;BME280;17724;53.546;9.974;2023-07-28T18:42:35;100692.72;;;23.11;83.81
31062;BME280;17724;53.546;9.974;2023-07-28T18:46:35;100696.88;;;23.05;84.67
31062;BME280;17724;53.546;9.974;2023-07-28T18:50:36;100704.47;;;23.05;85.61
31062;BME280;17724;53.546;9.974;2023-07-28T18:54:36;100710.69;;;22.90;86.60
31062;BME280;17724;53.546;9.974;2023-07-28T18:58:37;100718.28;;;22.89;85.33
31062;BME280;17724;53.546;9.974;2023-07-28T19:02:41;100710.03;;;22.72;86.61
31062;BME280;17724;53.546;9.974;2023-07-28T19:06:42;100707.44;;;22.67;86.76
31062;BME280;17724;53.546;9.974;2023-07-28T19:10:42;100694.19;;;22.55;88.94
31062;BME280;17724;53.546;9.974;2023-07-28T19:14:44;100717.06;;;22.57;89.80
31062;BME280;17724;53.546;9.974;2023-07-28T19:18:45;100711.47;;;22.57;88.04
31062;BME280;17724;53.546;9.974;2023-07-28T19:22:46;100714.56;;;22.64;87.82
31062;BME280;17724;53.546;9.974;2023-07-28T19:26:47;100711.47;;;22.57;87.26
31062;BME280;17724;53.546;9.974;2023-07-28T19:30:49;100720.38;;;22.59;87.99
31062;BME280;17724;53.546;9.974;2023-07-28T19:34:50;100722.22;;;22.55;88.29
31062;BME280;17724;53.546;9.974;2023-07-28T19:38:50;100720.63;;;22.45;89.39
31062;BME280;17724;53.546;9.974;2023-07-28T19:42:51;100714.88;;;22.42;89.96
31062;BME280;17724;53.546;9.974;2023-07-28T19:46:56;100720.53;;;22.33;90.34
31062;BME280;17724;53.546;9.974;2023-07-28T19:50:57;100720.00;;;22.40;89.23
31062;BME280;17724;53.546;9.974;2023-07-28T19:54:57;100721.50;;;22.37;90.37
31062;BME280;17724;53.546;9.974;2023-07-28T19:58:58;100722.59;;;22.45;92.21
31062;BME280;17724;53.546;9.974;2023-07-28T20:02:58;100707.34;;;22.33;90.77
31062;BME280;17724;53.546;9.974;2023-07-28T20:06:59;100715.69;;;22.42;89.79
31062;BME280;17724;53.546;9.974;2023-07-28T20:10:59;100714.28;;;22.36;89.19
31062;BME280;17724;53.546;9.974;2023-07-28T20:15:00;100720.53;;;22.33;89.75
31062;BME280;17724;53.546;9.974;2023-07-28T20:19:01;100718.63;;;22.25;90.79
31062;BME280;17724;53.546;9.974;2023-07-28T20:23:01;100725.53;;;22.27;90.74
31062;BME280;17724;53.546;9.974;2023-07-28T20:27:02;100730.03;;;22.20;92.58
31062;BME280;17724;53.546;9.974;2023-07-28T20:31:02;100728.88;;;22.12;93.60
31062;BME280;17724;53.546;9.974;2023-07-28T20:35:04;100727.47;;;21.97;95.11
31062;BME280;17724;53.546;9.974;2023-07-28T20:39:04;100730.44;;;22.01;95.54
31062;BME280;17724;53.546;9.974;2023-07-28T20:43:05;100736.53;;;21.94;95.62
31062;BME280;17724;53.546;9.974;2023-07-28T20:47:06;100730.94;;;21.94;95.95
31062;BME280;17724;53.546;9.974;2023-07-28T20:51:07;100721.56;;;21.90;95.12
31062;BME280;17724;53.546;9.974;2023-07-28T20:55:08;100727.81;;;21.96;94.97
31062;BME280;17724;53.546;9.974;2023-07-28T20:59:10;100731.28;;;21.93;95.86
31062;BME280;17724;53.546;9.974;2023-07-28T21:03:11;100726.84;;;21.92;96.32